createdAt,value
2023-02-06T00:02:36.141Z,76.51
2023-02-06T00:07:35.895Z,75.85
2023-02-06T00:12:35.891Z,75.54
2023-02-06T00:17:35.854Z,76.29
2023-02-06T00:22:35.668Z,76.06
2023-02-06T00:29:16.962Z,75.43
2023-02-06T00:34:16.428Z,75.64
2023-02-06T00:39:16.507Z,75.29
2023-02-06T00:44:16.140Z,75.29
2023-02-06T00:49:16.286Z,75.29
2023-02-06T00:54:16.120Z,75.71
2023-02-06T00:59:16.220Z,76.29
2023-02-06T01:04:16.123Z,75.60
2023-02-06T01:09:16.415Z,75.74
2023-02-06T01:14:15.879Z,76.89
2023-02-06T01:19:18.960Z,76.16
2023-02-06T01:24:15.860Z,77.23
2023-02-06T01:29:15.629Z,76.16
2023-02-06T01:34:15.510Z,76.26
2023-02-06T01:39:15.743Z,75.64
2023-02-06T01:44:15.365Z,75.64
2023-02-06T01:56:28.935Z,75.40
2023-02-06T02:01:28.089Z,75.40
2023-02-06T02:06:28.017Z,74.88
2023-02-06T02:11:27.914Z,77.79
2023-02-06T02:16:27.953Z,75.32
2023-02-06T02:21:27.722Z,75.32
2023-02-06T02:26:27.827Z,75.81
2023-02-06T02:31:27.695Z,75.29
2023-02-06T02:36:27.616Z,75.05
2023-02-06T02:41:27.647Z,74.57
2023-02-06T02:46:30.605Z,76.82
2023-02-06T02:51:27.413Z,80.36
2023-02-06T02:56:27.406Z,78.72
2023-02-06T03:01:27.330Z,77.30
2023-02-06T03:06:27.831Z,78.27
2023-02-06T03:11:27.309Z,76.75
2023-02-06T03:16:27.119Z,77.86
2023-02-06T04:23:19.470Z,76.95
2023-02-06T04:28:19.102Z,77.47
2023-02-06T04:33:19.202Z,78.58
2023-02-06T04:38:19.060Z,77.26
2023-02-06T04:43:18.960Z,75.74
2023-02-06T04:55:33.612Z,77.82
2023-02-06T05:00:33.099Z,75.85
2023-02-06T05:05:33.501Z,74.50
2023-02-06T05:10:31.454Z,75.33
2023-02-06T05:15:31.422Z,75.09
2023-02-06T05:20:31.169Z,75.40
2023-02-06T05:25:31.306Z,75.71
2023-02-06T05:30:31.262Z,76.40
2023-02-06T05:35:31.194Z,77.37
2023-02-06T05:40:31.200Z,77.92
2023-02-06T05:45:36.051Z,76.37
2023-02-06T06:28:50.156Z,76.47
2023-02-06T06:33:50.027Z,75.50
2023-02-06T06:38:49.714Z,75.26
2023-02-06T06:43:51.457Z,75.92
2023-02-06T06:48:49.815Z,75.78
2023-02-06T06:53:49.357Z,76.43
2023-02-06T06:58:49.298Z,77.20
2023-02-06T07:03:49.469Z,79.06
2023-02-06T07:08:49.291Z,78.41
2023-02-06T07:13:57.110Z,77.09
2023-02-06T07:18:52.146Z,78.37
2023-02-06T07:39:56.432Z,78.72
2023-02-06T07:44:56.562Z,79.20
2023-02-06T07:49:56.148Z,78.64
2023-02-06T07:54:56.204Z,78.54
2023-02-06T07:59:56.041Z,79.16
2023-02-06T08:04:55.991Z,79.55
2023-02-06T08:09:56.093Z,79.90
2023-02-06T08:14:56.155Z,79.51
2023-02-06T08:19:55.764Z,78.92
2023-02-06T08:24:55.622Z,81.66
2023-02-06T08:29:58.603Z,80.93
2023-02-06T08:34:55.801Z,82.42
2023-02-06T08:39:55.738Z,82.80
2023-02-06T08:44:55.539Z,81.20
2023-02-06T08:49:55.447Z,82.01
2023-02-06T08:54:55.674Z,80.65
2023-02-06T08:59:55.317Z,79.27
2023-02-06T09:06:34.622Z,76.95
2023-02-06T09:11:34.647Z,78.68
2023-02-06T09:47:32.234Z,77.53
2023-02-06T09:52:34.503Z,75.70
2023-02-06T09:57:29.192Z,76.15
2023-02-06T10:02:28.633Z,76.15
2023-02-06T10:07:33.139Z,73.98
2023-02-06T11:34:11.883Z,72.71
2023-02-06T11:39:11.573Z,72.67
2023-02-06T11:44:11.383Z,71.43
2023-02-06T11:49:10.910Z,71.25
2023-02-06T11:54:10.950Z,71.73
2023-02-06T11:59:11.081Z,71.60
2023-02-06T12:09:32.853Z,70.60
2023-02-06T12:39:43.890Z,72.01
2023-02-06T13:22:41.716Z,79.20
2023-02-06T13:27:41.360Z,79.85
2023-02-06T13:32:41.544Z,79.34
2023-02-06T13:37:41.185Z,78.72
2023-02-06T13:42:42.018Z,80.73
2023-02-06T13:47:41.240Z,79.17
2023-02-06T13:52:41.216Z,79.17
2023-02-06T13:57:41.039Z,78.78
2023-02-06T14:02:41.026Z,78.65
2023-02-06T14:07:41.101Z,79.10
2023-02-06T14:31:11.859Z,80.49
2023-02-06T14:36:11.653Z,79.17
2023-02-06T14:41:11.752Z,78.61
2023-02-06T14:46:11.688Z,78.44
2023-02-06T14:51:12.145Z,78.30
2023-02-06T15:07:24.947Z,79.20
2023-02-06T15:12:25.074Z,78.65
2023-02-06T15:17:24.926Z,79.13
2023-02-06T15:22:24.901Z,78.61
2023-02-06T15:27:24.882Z,79.58
2023-02-06T15:32:24.778Z,80.45
2023-02-06T15:37:24.584Z,81.90
2023-02-06T16:03:27.607Z,82.01
2023-02-06T16:08:26.917Z,81.80
2023-02-06T19:03:54.934Z,78.14
2023-02-06T19:08:53.573Z,78.10
2023-02-06T19:13:53.106Z,76.33
2023-02-06T19:18:52.904Z,75.43
2023-02-06T19:23:53.037Z,75.15
2023-02-06T19:28:52.966Z,76.20
2023-02-06T19:33:52.891Z,75.67
2023-02-06T19:38:52.981Z,75.78
2023-02-06T19:43:52.736Z,75.64
2023-02-06T19:48:52.649Z,75.19
2023-02-06T19:53:55.578Z,75.74
2023-02-06T19:58:52.544Z,76.20
2023-02-06T20:03:52.524Z,74.35
2023-02-06T20:08:52.224Z,75.46
2023-02-06T20:13:52.355Z,75.60
2023-02-06T20:21:13.589Z,75.50
2023-02-06T20:30:56.416Z,75.57
2023-02-06T20:35:56.174Z,75.05
2023-02-06T20:40:56.226Z,73.86
2023-02-06T21:04:57.693Z,73.72
2023-02-06T21:09:57.340Z,73.76
2023-02-06T21:14:57.520Z,72.41
2023-02-06T21:19:57.705Z,72.02
2023-02-06T21:24:57.311Z,71.26
2023-02-06T21:29:57.148Z,70.22
2023-02-06T21:34:57.390Z,70.53
2023-02-06T21:39:57.250Z,70.92
2023-02-06T21:44:56.967Z,70.22
2023-02-06T21:49:56.914Z,70.46
2023-02-06T21:54:59.740Z,70.36
2023-02-06T21:59:56.728Z,71.26
2023-02-06T22:04:56.851Z,70.28
2023-02-06T22:09:56.775Z,70.91
2023-02-06T22:14:56.566Z,70.66
2023-02-06T22:19:56.528Z,71.19
2023-02-06T22:24:56.372Z,71.15
2023-02-06T22:29:56.529Z,70.84
2023-02-06T22:34:56.294Z,71.70
2023-02-06T22:39:56.172Z,71.50
2023-02-06T22:46:13.811Z,70.66
2023-02-06T22:51:13.607Z,72.16
2023-02-06T22:56:13.588Z,73.13
2023-02-06T23:01:13.480Z,72.36
2023-02-06T23:06:13.520Z,72.68
2023-02-06T23:11:13.444Z,72.68
2023-02-06T23:16:13.380Z,72.36
2023-02-06T23:21:13.275Z,72.33
2023-02-06T23:27:30.382Z,70.50
2023-02-06T23:32:30.219Z,71.50
2023-02-06T23:37:30.236Z,72.13
2023-02-06T23:42:30.156Z,71.78
2023-02-06T23:52:52.937Z,72.02
2023-02-06T23:57:52.559Z,72.13
